Joyce Maxine — WDC9281 — position and weather

sailwx.info

Track history (hours):
 
Tides and Currents Weather Stations Pressure Air Temp Water Temp Dewpoint Dewpoint Depression Visibility Wind Speed Wind Dir Waves Ship Positions

Joyce Maxine

Owner: LeBeouf Bros. Towing, L.L.C., Houma, LA. More information available from US FCC via Universal Licensing System and Coast Guard Vessel Documentation Center.

Last reported at 2018-Jun-23 07:05 UTC. Time now 2018-Jun-25 00:15 UTC.
Position N 27°53' W 097°03'.

Length 22 m; draft 3 m.

Type: Towing. MMSI: 367100060.

Date/timePositionNaut miles runAvg speedWind from/ knotsBaromVisibWave heightAir tempDewpointWater temp
2018-Jun-23 07:05N 27°53' W 097°03'0 0.0
2018-Jun-23 06:57N 27°53' W 097°03'0 0.0
2018-Jun-23 06:17N 27°53' W 097°03'0 0.0
2018-Jun-23 06:00N 27°53' W 097°03'0 0.0
2018-Jun-23 05:07N 27°53' W 097°03'0 0.0
2018-Jun-23 05:01N 27°53' W 097°03'0 0.0
2018-Jun-23 04:30N 27°53' W 097°03'0 0.0
2018-Jun-23 04:01N 27°53' W 097°03'0 0.0
2018-Jun-23 03:30N 27°53' W 097°03'  
2018-Jun-13 22:45N 28°56' W 095°19'2 5.8
2018-Jun-13 22:28N 28°57' W 095°17'2 3.9
2018-Jun-13 22:00N 28°59' W 095°16'2 4.0
2018-Jun-13 21:30N 29°00' W 095°15'2 5.0
2018-Jun-13 21:00N 29°03' W 095°13'2 4.9
2018-Jun-13 20:30N 29°05' W 095°12'2 4.7
2018-Jun-13 20:00N 29°07' W 095°11'2 4.3
2018-Jun-13 19:30N 29°09' W 095°10'3 5.0
2018-Jun-13 18:59N 29°10' W 095°07'2 5.0
2018-Jun-13 18:30N 29°11' W 095°05'2 3.9
2018-Jun-13 18:00N 29°12' W 095°03'1 1.5
2018-Jun-13 17:31N 29°13' W 095°02'2 4.8
2018-Jun-13 17:01N 29°15' W 095°01'3 5.3
2018-Jun-13 16:30N 29°17' W 094°59'3 5.3
2018-Jun-13 16:00N 29°17' W 094°56'2 4.7
2018-Jun-13 15:30N 29°18' W 094°53'3 5.5
2018-Jun-13 15:00N 29°20' W 094°51'3 5.1
2018-Jun-13 14:23N 29°22' W 094°48'19 4.8
2018-Jun-13 10:31N 29°31' W 094°30'5 4.4
2018-Jun-13 09:23N 29°34' W 094°25'2 3.8
2018-Jun-13 08:52N 29°36' W 094°24'2 2.9
2018-Jun-13 08:20N 29°36' W 094°22'1 2.0
2018-Jun-13 07:59N 29°37' W 094°21'2 3.6
2018-Jun-13 07:28N 29°37' W 094°19'  
Track history (hours):
 
Tides and Currents Weather Stations Pressure Air Temp Water Temp Dewpoint Dewpoint Depression Visibility Wind Speed Wind Dir Waves Ship Positions

Joyce Maxine

Owner: LeBeouf Bros. Towing, L.L.C., Houma, LA. More information available from US FCC via Universal Licensing System and Coast Guard Vessel Documentation Center.

Last reported at 2018-Jun-23 07:05 UTC. Time now 2018-Jun-25 00:15 UTC.
Position N 27°53' W 097°03'.

Length 22 m; draft 3 m.

Type: Towing. MMSI: 367100060.

Date/timePositionNaut miles runAvg speedWind from/ knotsBaromVisibWave heightAir tempDewpointWater temp
2018-Jun-23 07:05N 27°53' W 097°03'0 0.0
2018-Jun-23 06:57N 27°53' W 097°03'0 0.0
2018-Jun-23 06:17N 27°53' W 097°03'0 0.0
2018-Jun-23 06:00N 27°53' W 097°03'0 0.0
2018-Jun-23 05:07N 27°53' W 097°03'0 0.0
2018-Jun-23 05:01N 27°53' W 097°03'0 0.0
2018-Jun-23 04:30N 27°53' W 097°03'0 0.0
2018-Jun-23 04:01N 27°53' W 097°03'0 0.0
2018-Jun-23 03:30N 27°53' W 097°03'  
2018-Jun-13 22:45N 28°56' W 095°19'2 5.8
2018-Jun-13 22:28N 28°57' W 095°17'2 3.9
2018-Jun-13 22:00N 28°59' W 095°16'2 4.0
2018-Jun-13 21:30N 29°00' W 095°15'2 5.0
2018-Jun-13 21:00N 29°03' W 095°13'2 4.9
2018-Jun-13 20:30N 29°05' W 095°12'2 4.7
2018-Jun-13 20:00N 29°07' W 095°11'2 4.3
2018-Jun-13 19:30N 29°09' W 095°10'3 5.0
2018-Jun-13 18:59N 29°10' W 095°07'2 5.0
2018-Jun-13 18:30N 29°11' W 095°05'2 3.9
2018-Jun-13 18:00N 29°12' W 095°03'1 1.5
2018-Jun-13 17:31N 29°13' W 095°02'2 4.8
2018-Jun-13 17:01N 29°15' W 095°01'3 5.3
2018-Jun-13 16:30N 29°17' W 094°59'3 5.3
2018-Jun-13 16:00N 29°17' W 094°56'2 4.7
2018-Jun-13 15:30N 29°18' W 094°53'3 5.5
2018-Jun-13 15:00N 29°20' W 094°51'3 5.1
2018-Jun-13 14:23N 29°22' W 094°48'19 4.8
2018-Jun-13 10:31N 29°31' W 094°30'5 4.4
2018-Jun-13 09:23N 29°34' W 094°25'2 3.8
2018-Jun-13 08:52N 29°36' W 094°24'2 2.9
2018-Jun-13 08:20N 29°36' W 094°22'1 2.0
2018-Jun-13 07:59N 29°37' W 094°21'2 3.6
2018-Jun-13 07:28N 29°37' W 094°19'  

Dump ship's entire track history